createdAt,value
2023-04-07T00:04:20.918Z,5.57
2023-04-07T00:09:42.081Z,5.55
2023-04-07T00:15:02.928Z,5.57
2023-04-07T00:20:23.826Z,5.53
2023-04-07T00:25:44.767Z,5.52
2023-04-07T00:31:05.915Z,5.57
2023-04-07T00:36:27.155Z,5.56
2023-04-07T00:41:48.222Z,5.61
2023-04-07T00:47:09.073Z,5.59
2023-04-07T00:52:30.269Z,5.59
2023-04-07T00:57:51.893Z,5.62
2023-04-07T01:03:18.694Z,5.57
2023-04-07T01:08:51.790Z,5.55
2023-04-07T01:14:12.582Z,5.54
2023-04-07T01:19:55.456Z,5.51
2023-04-07T01:25:19.727Z,5.43
2023-04-07T01:30:41.316Z,5.36
2023-04-07T01:36:02.472Z,5.35
2023-04-07T01:41:23.794Z,5.28
2023-04-07T01:46:44.961Z,5.20
2023-04-07T01:52:06.221Z,5.09
2023-04-07T01:57:27.140Z,5.05
2023-04-07T02:02:55.884Z,5.04
2023-04-07T02:08:18.404Z,4.98
2023-04-07T02:13:39.350Z,4.95
2023-04-07T02:19:04.746Z,5.00
2023-04-07T02:24:25.871Z,5.03
2023-04-07T02:29:46.755Z,5.09
2023-04-07T02:35:08.690Z,5.10
2023-04-07T02:40:48.073Z,5.09
2023-04-07T02:46:17.430Z,5.14
2023-04-07T02:51:38.940Z,5.12
2023-04-07T02:57:01.055Z,5.07
2023-04-07T03:02:26.024Z,5.03
2023-04-07T03:07:52.474Z,5.07
2023-04-07T03:13:19.748Z,5.21
2023-04-07T03:18:41.013Z,5.27
2023-04-07T03:24:03.712Z,5.33
2023-04-07T03:29:24.524Z,5.41
2023-04-07T03:34:46.256Z,5.46
2023-04-07T03:40:08.638Z,5.52
2023-04-07T03:45:30.639Z,5.50
2023-04-07T03:50:51.723Z,5.49
2023-04-07T03:56:17.024Z,5.52
2023-04-07T04:01:49.787Z,5.57
2023-04-07T04:07:12.070Z,5.54
2023-04-07T04:12:42.149Z,5.50
2023-04-07T04:18:06.576Z,5.31
2023-04-07T04:23:28.698Z,5.32
2023-04-07T04:28:52.904Z,5.44
2023-04-07T04:34:16.002Z,5.51
2023-04-07T04:39:38.237Z,5.54
2023-04-07T04:44:59.747Z,5.55
2023-04-07T04:50:39.641Z,5.54
2023-04-07T05:02:20.778Z,5.75
2023-04-07T05:07:43.345Z,5.86
2023-04-07T05:13:07.255Z,6.03
2023-04-07T05:18:30.453Z,6.22
2023-04-07T05:23:53.370Z,6.42
2023-04-07T05:29:16.472Z,6.63
2023-04-07T05:34:37.040Z,6.85
2023-04-07T05:39:57.881Z,7.12
2023-04-07T05:45:18.637Z,7.46
2023-04-07T05:50:42.542Z,7.89
2023-04-07T05:56:07.282Z,8.31
2023-04-07T06:01:35.810Z,8.66
2023-04-07T06:06:56.574Z,9.12
2023-04-07T06:12:17.255Z,9.65
2023-04-07T06:17:37.946Z,10.00
2023-04-07T06:22:58.446Z,10.38
2023-04-07T06:28:20.889Z,10.90
2023-04-07T06:33:42.490Z,11.46
2023-04-07T06:39:03.339Z,13.12
2023-04-07T06:44:24.108Z,16.16
2023-04-07T06:49:45.006Z,19.03
2023-04-07T06:55:07.768Z,19.53
2023-04-07T07:00:30.409Z,18.78
2023-04-07T07:05:52.920Z,17.62
2023-04-07T07:11:13.972Z,16.87
2023-04-07T07:16:34.806Z,16.82
2023-04-07T07:21:55.813Z,17.79
2023-04-07T07:27:16.858Z,17.49
2023-04-07T07:32:37.848Z,16.82
2023-04-07T07:37:58.629Z,16.74
2023-04-07T07:43:19.466Z,17.46
2023-04-07T07:48:40.502Z,18.13
2023-04-07T07:54:01.546Z,18.20
2023-04-07T07:59:22.152Z,17.44
2023-04-07T08:04:43.007Z,16.40
2023-04-07T08:10:03.650Z,16.33
2023-04-07T08:15:24.661Z,16.35
2023-04-07T08:20:46.809Z,15.98
2023-04-07T08:26:07.756Z,15.23
2023-04-07T08:31:28.404Z,14.47
2023-04-07T08:36:49.366Z,13.21
2023-04-07T08:42:10.370Z,12.62
2023-04-07T08:47:31.772Z,12.15
2023-04-07T08:52:56.977Z,11.94
2023-04-07T08:58:17.813Z,11.84
2023-04-07T09:03:38.721Z,11.85
2023-04-07T09:08:59.913Z,12.10
2023-04-07T09:14:21.736Z,12.20
2023-04-07T09:19:42.469Z,12.36
2023-04-07T09:25:13.601Z,12.56
2023-04-07T09:30:34.456Z,12.73
2023-04-07T09:35:55.720Z,12.72
2023-04-07T09:41:19.513Z,13.35
2023-04-07T09:47:06.361Z,13.85
2023-04-07T09:52:53.115Z,14.08
2023-04-07T09:58:20.907Z,14.93
2023-04-07T10:03:41.942Z,16.97
2023-04-07T10:09:02.482Z,18.85
2023-04-07T10:14:31.074Z,17.48
2023-04-07T10:19:51.747Z,15.76
2023-04-07T10:25:14.050Z,14.48
2023-04-07T10:30:35.312Z,14.05
2023-04-07T10:36:06.553Z,13.63
2023-04-07T10:41:36.937Z,13.26
2023-04-07T10:47:05.799Z,13.03
2023-04-07T10:52:26.604Z,12.92
2023-04-07T10:58:12.799Z,13.14
2023-04-07T11:03:34.768Z,13.32
2023-04-07T11:08:55.661Z,13.31
2023-04-07T11:14:31.785Z,13.25
2023-04-07T11:19:55.484Z,12.99
2023-04-07T11:25:21.881Z,12.77
2023-04-07T11:30:53.058Z,13.04
2023-04-07T11:36:14.152Z,12.98
2023-04-07T11:41:45.626Z,12.70
2023-04-07T11:47:06.533Z,12.84
2023-04-07T11:52:27.130Z,12.84
2023-04-07T11:57:47.997Z,13.17
2023-04-07T12:03:14.480Z,13.86
2023-04-07T12:08:43.445Z,14.25
2023-04-07T12:14:05.331Z,14.83
2023-04-07T12:19:28.266Z,14.98
2023-04-07T12:24:49.090Z,15.14
2023-04-07T12:30:09.892Z,15.56
2023-04-07T12:35:31.029Z,15.45
2023-04-07T12:40:51.880Z,15.11
2023-04-07T12:46:13.170Z,14.58
2023-04-07T12:51:33.883Z,14.65
2023-04-07T12:56:54.712Z,14.64
2023-04-07T13:02:18.226Z,14.59
2023-04-07T13:07:38.824Z,14.46
2023-04-07T13:12:59.562Z,14.40
2023-04-07T13:18:20.182Z,14.33
2023-04-07T13:23:53.599Z,14.31
2023-04-07T13:29:14.408Z,14.16
2023-04-07T13:34:36.652Z,14.16
2023-04-07T13:39:57.486Z,13.52
2023-04-07T13:45:18.173Z,13.41
2023-04-07T13:50:38.952Z,13.53
2023-04-07T13:55:59.768Z,13.62
2023-04-07T14:01:20.562Z,13.51
2023-04-07T14:06:41.581Z,13.30
2023-04-07T14:12:01.919Z,13.09
2023-04-07T14:17:22.707Z,12.75
2023-04-07T14:22:43.317Z,12.50
2023-04-07T14:28:04.040Z,12.43
2023-04-07T14:33:24.869Z,12.30
2023-04-07T14:38:45.575Z,12.45
2023-04-07T14:44:06.257Z,12.67
2023-04-07T14:49:28.574Z,12.80
2023-04-07T14:54:49.289Z,12.51
2023-04-07T15:00:11.524Z,12.64
2023-04-07T15:05:33.106Z,13.01
2023-04-07T15:10:53.440Z,13.20
2023-04-07T15:16:14.581Z,13.00
2023-04-07T15:21:35.418Z,12.71
2023-04-07T15:26:56.092Z,12.17
2023-04-07T15:32:16.972Z,11.96
2023-04-07T15:37:38.493Z,11.83
2023-04-07T15:42:59.802Z,11.55
2023-04-07T15:48:20.569Z,11.22
2023-04-07T15:53:41.707Z,11.02
2023-04-07T15:59:03.313Z,11.05
2023-04-07T16:04:26.407Z,11.08
2023-04-07T16:10:37.021Z,11.13
2023-04-07T16:16:11.981Z,10.94
2023-04-07T16:21:32.794Z,10.92
2023-04-07T16:26:55.685Z,10.85
2023-04-07T16:32:17.485Z,10.86
2023-04-07T16:37:38.395Z,10.80
2023-04-07T16:42:58.877Z,10.53
2023-04-07T16:48:19.746Z,10.44
2023-04-07T16:53:40.509Z,10.44
2023-04-07T16:59:03.387Z,10.34
2023-04-07T17:04:25.143Z,10.20
2023-04-07T17:09:46.145Z,10.17
2023-04-07T17:15:07.245Z,10.03
2023-04-07T17:20:28.156Z,10.01
2023-04-07T17:25:50.476Z,9.93
2023-04-07T17:31:13.250Z,9.85
2023-04-07T17:36:34.230Z,9.86
2023-04-07T17:41:54.870Z,9.81
2023-04-07T17:47:16.054Z,9.69
2023-04-07T17:52:53.520Z,9.55
2023-04-07T17:58:14.125Z,9.50
2023-04-07T18:03:35.186Z,9.43
2023-04-07T18:08:56.629Z,9.31
2023-04-07T18:14:17.377Z,9.27
2023-04-07T18:19:37.995Z,9.26
2023-04-07T18:25:00.950Z,9.20
2023-04-07T18:30:22.571Z,9.18
2023-04-07T18:35:43.603Z,9.06
2023-04-07T18:41:06.024Z,9.10
2023-04-07T18:46:27.433Z,9.03
2023-04-07T18:51:48.327Z,8.96
2023-04-07T18:57:08.924Z,8.84
2023-04-07T19:02:29.714Z,8.83
2023-04-07T19:07:50.929Z,8.86
2023-04-07T19:13:12.623Z,8.82
2023-04-07T19:18:34.200Z,8.74
2023-04-07T19:23:56.486Z,8.62
2023-04-07T19:29:17.456Z,8.54
2023-04-07T19:34:38.355Z,8.38
2023-04-07T19:40:02.912Z,8.38
2023-04-07T19:45:23.687Z,8.28
2023-04-07T19:50:49.613Z,8.16
2023-04-07T19:56:11.255Z,8.09
2023-04-07T20:01:32.708Z,8.02
2023-04-07T20:06:54.029Z,7.94
2023-04-07T20:12:15.098Z,7.95
2023-04-07T20:17:37.173Z,7.86
2023-04-07T20:23:12.458Z,7.80
2023-04-07T20:28:37.736Z,7.69
2023-04-07T20:33:59.112Z,7.72
2023-04-07T20:39:20.006Z,7.64
2023-04-07T20:44:41.062Z,7.61
2023-04-07T20:50:02.274Z,7.57
2023-04-07T20:55:22.989Z,7.60
2023-04-07T21:00:43.808Z,7.55
2023-04-07T21:06:04.869Z,7.55
2023-04-07T21:11:26.111Z,7.54
2023-04-07T21:16:46.807Z,7.52
2023-04-07T21:22:07.525Z,7.47
2023-04-07T21:27:29.553Z,7.41
2023-04-07T21:32:50.446Z,7.35
2023-04-07T21:38:11.222Z,7.35
2023-04-07T21:43:32.428Z,7.33
2023-04-07T21:48:53.190Z,7.35
2023-04-07T21:54:14.128Z,7.35
2023-04-07T21:59:36.041Z,7.30
2023-04-07T22:04:57.025Z,7.33
2023-04-07T22:10:17.934Z,7.34
2023-04-07T22:15:38.932Z,7.30
2023-04-07T22:20:59.808Z,7.34
2023-04-07T22:26:21.193Z,7.26
2023-04-07T22:31:42.177Z,7.15
2023-04-07T22:37:03.017Z,7.13
2023-04-07T22:42:23.717Z,7.07
2023-04-07T22:47:44.674Z,7.00
2023-04-07T22:53:07.353Z,7.02
2023-04-07T22:58:27.984Z,6.97
2023-04-07T23:03:48.916Z,6.90
2023-04-07T23:09:10.267Z,6.89
2023-04-07T23:14:31.382Z,6.92
2023-04-07T23:19:52.251Z,6.89
2023-04-07T23:25:13.009Z,6.86
2023-04-07T23:30:33.792Z,6.87
2023-04-07T23:35:55.773Z,6.76
2023-04-07T23:41:16.484Z,6.73
2023-04-07T23:46:37.217Z,6.74
2023-04-07T23:51:57.942Z,6.73
2023-04-07T23:57:18.778Z,6.65
